Time;durP1;ratioP1;P1;durP2;ratioP2;P2;SDS_P1;SDS_P2;PMS_P1;PMS_P2;Temp;Humidity;BMP_temperature;BMP_pressure;BME280_temperature;BME280_humidity;BME280_pressure;Samples;Min_cycle;Max_cycle;Signal;HPM_P1;HPM_P2
2022/05/04 00:01:45;;;;;;;8.70;2.50;;;13.20;54.60;;;;;;5125146;27;20027;-65
2022/05/04 00:04:11;;;;;;;7.53;3.10;;;13.20;54.60;;;;;;5116188;28;20034;-65
2022/05/04 00:06:37;;;;;;;9.18;2.80;;;13.20;54.60;;;;;;5121800;27;20472;-65
2022/05/04 00:09:03;;;;;;;7.68;2.40;;;13.20;54.60;;;;;;5135553;27;20080;-65
2022/05/04 00:11:28;;;;;;;7.55;2.58;;;13.20;54.70;;;;;;5119453;27;20103;-65
2022/05/04 00:13:54;;;;;;;8.23;3.00;;;13.20;54.70;;;;;;5115532;28;20122;-65
2022/05/04 00:16:20;;;;;;;8.80;3.03;;;13.20;54.80;;;;;;5118344;27;20106;-65
2022/05/04 00:18:45;;;;;;;13.35;3.30;;;13.20;54.80;;;;;;5114919;28;20356;-65
2022/05/04 00:21:11;;;;;;;7.80;2.70;;;13.20;54.90;;;;;;5117219;27;20088;-65
2022/05/04 00:23:36;;;;;;;7.35;3.22;;;13.10;54.90;;;;;;5132679;27;20028;-65
2022/05/04 00:26:02;;;;;;;8.60;2.72;;;13.20;55.00;;;;;;5124003;27;20038;-65
2022/05/04 00:28:28;;;;;;;6.72;2.50;;;13.10;54.90;;;;;;5134789;27;20034;-65
2022/05/04 00:30:53;;;;;;;6.10;2.83;;;13.10;55.00;;;;;;5122582;27;20043;-65
2022/05/04 00:33:19;;;;;;;8.55;3.00;;;13.10;55.10;;;;;;5136359;27;20049;-65
2022/05/04 00:35:45;;;;;;;9.15;3.03;;;13.10;55.00;;;;;;5131525;27;20326;-65
2022/05/04 00:38:10;;;;;;;12.23;2.60;;;13.10;55.00;;;;;;5125986;27;20027;-65
2022/05/04 00:40:36;;;;;;;7.30;2.90;;;13.10;55.00;;;;;;5131563;27;20019;-65
2022/05/04 00:43:02;;;;;;;7.65;2.47;;;13.10;55.00;;;;;;5115737;27;20031;-65
2022/05/04 00:45:28;;;;;;;8.40;2.97;;;13.10;55.10;;;;;;5126910;27;20027;-65
2022/05/04 00:47:53;;;;;;;8.32;3.20;;;13.10;55.10;;;;;;5118703;27;20089;-65
2022/05/04 00:50:20;;;;;;;7.78;2.65;;;13.10;55.20;;;;;;5120744;27;20035;-65
2022/05/04 00:52:47;;;;;;;7.68;2.50;;;13.00;55.10;;;;;;5133349;27;20031;-65
2022/05/04 00:55:16;;;;;;;8.40;2.47;;;13.00;55.20;;;;;;5121684;27;20415;-65
2022/05/04 01:00:28;;;;;;;8.07;2.97;;;13.00;55.20;;;;;;5130268;27;20073;-65
2022/05/04 01:02:54;;;;;;;8.02;2.58;;;13.00;55.20;;;;;;5130005;27;20460;-65
2022/05/04 01:05:19;;;;;;;7.90;2.70;;;12.90;55.20;;;;;;5131966;27;20118;-65
2022/05/04 01:07:46;;;;;;;9.13;2.97;;;12.90;55.30;;;;;;5134666;27;20030;-66
2022/05/04 01:10:14;;;;;;;8.23;2.88;;;12.90;55.30;;;;;;5122703;27;20031;-65
2022/05/04 01:12:48;;;;;;;9.40;2.95;;;12.90;55.40;;;;;;5131800;27;20099;-65
2022/05/04 01:15:14;;;;;;;9.80;2.63;;;12.90;55.40;;;;;;5134519;27;20027;-65
2022/05/04 01:17:40;;;;;;;8.40;2.97;;;12.90;55.40;;;;;;5123326;27;20099;-65
2022/05/04 01:20:08;;;;;;;7.25;2.67;;;12.90;55.40;;;;;;5119607;27;20118;-65
2022/05/04 01:22:34;;;;;;;8.85;3.22;;;12.90;55.40;;;;;;5123716;27;20088;-65
2022/05/04 01:25:00;;;;;;;9.15;2.45;;;12.80;55.30;;;;;;5134503;27;20439;-65
2022/05/04 01:27:26;;;;;;;10.00;2.83;;;12.80;55.40;;;;;;5131855;27;20031;-65
2022/05/04 01:29:52;;;;;;;6.65;2.63;;;12.80;55.40;;;;;;5124482;28;20015;-65
2022/05/04 01:32:18;;;;;;;10.90;3.13;;;12.80;55.40;;;;;;5116404;27;20494;-65
2022/05/04 01:34:43;;;;;;;9.73;2.85;;;12.80;55.30;;;;;;5133582;27;20023;-65
2022/05/04 01:37:09;;;;;;;10.82;3.08;;;12.80;55.40;;;;;;5127534;27;20024;-65
2022/05/04 01:39:35;;;;;;;8.63;2.80;;;12.80;55.40;;;;;;5125937;28;20050;-66
2022/05/04 01:42:05;;;;;;;8.20;2.33;;;12.70;55.30;;;;;;5116374;28;20231;-65
2022/05/04 01:44:32;;;;;;;7.00;2.30;;;12.80;55.30;;;;;;5130314;28;20046;-65
2022/05/04 01:46:57;;;;;;;14.50;3.28;;;12.70;55.20;;;;;;5129460;28;20027;-65
2022/05/04 01:49:23;;;;;;;6.68;2.88;;;12.70;55.20;;;;;;5124441;27;20038;-65
2022/05/04 01:51:48;;;;;;;8.38;2.92;;;12.70;55.10;;;;;;5132932;27;20031;-65
2022/05/04 01:54:14;;;;;;;8.60;2.58;;;12.70;55.10;;;;;;5132792;27;20423;-65
2022/05/04 01:56:40;;;;;;;9.20;3.03;;;12.70;55.10;;;;;;5128661;27;20051;-65
2022/05/04 01:59:05;;;;;;;9.27;2.58;;;12.70;55.10;;;;;;5129868;27;20509;-65
2022/05/04 02:01:31;;;;;;;8.75;2.53;;;12.70;55.00;;;;;;5125598;28;20690;-65
2022/05/04 02:03:58;;;;;;;8.93;2.63;;;12.70;55.00;;;;;;5135172;27;20135;-65
2022/05/04 02:06:24;;;;;;;9.02;2.70;;;12.70;55.00;;;;;;5127223;27;20038;-65
2022/05/04 02:08:50;;;;;;;8.55;2.45;;;12.70;55.10;;;;;;5119208;27;20019;-65
2022/05/04 02:11:17;;;;;;;8.93;2.92;;;12.70;55.10;;;;;;5129855;27;20023;-65
2022/05/04 02:13:42;;;;;;;7.97;2.45;;;12.70;55.10;;;;;;5117909;27;20027;-65
2022/05/04 02:16:08;;;;;;;11.60;2.92;;;12.60;55.00;;;;;;5124749;27;20031;-65
2022/05/04 02:18:34;;;;;;;8.65;2.47;;;12.60;55.00;;;;;;5121693;27;20023;-65
2022/05/04 02:20:59;;;;;;;5.25;2.05;;;12.60;55.10;;;;;;5118754;27;20107;-65
2022/05/04 02:23:25;;;;;;;10.60;2.75;;;12.60;55.10;;;;;;5137227;27;20031;-65
2022/05/04 02:25:51;;;;;;;11.63;2.85;;;12.60;55.10;;;;;;5130560;27;20369;-65
2022/05/04 02:28:16;;;;;;;9.30;2.25;;;12.60;55.10;;;;;;5127338;27;20023;-65
2022/05/04 02:30:43;;;;;;;8.50;2.75;;;12.60;55.10;;;;;;5122147;27;20046;-65
2022/05/04 02:33:09;;;;;;;9.27;2.60;;;12.60;55.20;;;;;;5122835;27;20339;-65
2022/05/04 02:38:19;;;;;;;8.30;2.63;;;12.60;55.20;;;;;;5127956;27;20053;-65
2022/05/04 02:40:45;;;;;;;8.65;2.83;;;12.50;55.20;;;;;;5124418;27;20016;-65
2022/05/04 02:43:10;;;;;;;9.80;2.88;;;12.60;55.20;;;;;;5132953;27;20053;-65
2022/05/04 02:45:36;;;;;;;9.25;2.90;;;12.50;55.10;;;;;;5117222;27;20078;-65
2022/05/04 02:48:01;;;;;;;8.57;2.58;;;12.50;55.00;;;;;;5127390;27;20042;-65
2022/05/04 02:50:27;;;;;;;8.85;2.63;;;12.50;55.10;;;;;;5129238;27;20041;-65
2022/05/04 02:52:53;;;;;;;8.30;2.65;;;12.50;55.10;;;;;;5135828;27;20114;-65
2022/05/04 02:55:18;;;;;;;8.93;2.88;;;12.50;55.10;;;;;;5117613;27;20486;-65
2022/05/04 02:57:44;;;;;;;10.30;3.13;;;12.50;55.10;;;;;;5126795;27;20039;-65
2022/05/04 03:00:10;;;;;;;6.85;2.60;;;12.50;55.10;;;;;;5122864;27;20034;-65
2022/05/04 03:02:36;;;;;;;10.90;2.60;;;12.50;55.10;;;;;;5132778;27;20057;-65
2022/05/04 03:05:04;;;;;;;8.82;2.67;;;12.40;55.10;;;;;;5126689;27;20059;-65
2022/05/04 03:07:30;;;;;;;7.95;2.42;;;12.40;55.10;;;;;;5124499;27;20452;-65
2022/05/04 03:09:57;;;;;;;9.60;2.60;;;12.40;55.10;;;;;;5124474;27;20051;-65
2022/05/04 03:12:25;;;;;;;8.13;2.83;;;12.40;55.10;;;;;;5128386;27;20070;-65
2022/05/04 03:14:51;;;;;;;7.78;2.70;;;12.40;55.10;;;;;;5136716;27;20038;-65
2022/05/04 03:17:17;;;;;;;10.68;2.75;;;12.40;55.10;;;;;;5120713;27;20031;-65
2022/05/04 03:19:43;;;;;;;9.10;2.85;;;12.40;55.20;;;;;;5119445;27;20019;-65
2022/05/04 03:22:09;;;;;;;6.47;2.40;;;12.30;55.20;;;;;;5130180;27;20024;-65
2022/05/04 03:24:35;;;;;;;8.38;2.88;;;12.30;55.20;;;;;;5127262;27;20056;-65
2022/05/04 03:27:02;;;;;;;10.65;3.25;;;12.30;55.20;;;;;;5130123;27;20038;-65
2022/05/04 03:29:27;;;;;;;7.05;2.38;;;12.30;55.20;;;;;;5124690;27;20031;-65
2022/05/04 03:31:53;;;;;;;8.18;2.53;;;12.20;55.20;;;;;;5125371;27;20121;-65
2022/05/04 03:34:19;;;;;;;7.13;2.63;;;12.20;55.30;;;;;;5130266;27;20035;-65
2022/05/04 03:36:45;;;;;;;7.63;2.70;;;12.20;55.30;;;;;;5117527;27;20028;-65
2022/05/04 03:39:10;;;;;;;8.98;3.08;;;12.20;55.30;;;;;;5117514;27;20022;-65
2022/05/04 03:41:38;;;;;;;8.40;2.97;;;12.20;55.30;;;;;;5118303;27;20111;-65
2022/05/04 03:44:05;;;;;;;7.15;2.42;;;12.10;55.20;;;;;;5126186;27;20030;-65
2022/05/04 03:46:47;;;;;;;10.43;3.00;;;12.10;55.20;;;;;;5134330;27;20042;-65
2022/05/04 03:49:15;;;;;;;6.90;2.42;;;12.10;55.20;;;;;;5127089;27;20019;-65
2022/05/04 03:51:41;;;;;;;8.10;2.90;;;12.10;55.30;;;;;;5116519;27;20341;-65
2022/05/04 03:54:07;;;;;;;8.65;2.40;;;12.10;55.40;;;;;;5116342;28;20034;-65
2022/05/04 03:56:34;;;;;;;9.52;2.92;;;12.10;55.50;;;;;;5116113;27;20343;-65
2022/05/04 03:59:00;;;;;;;9.95;2.88;;;12.10;55.50;;;;;;5116803;27;20023;-65
2022/05/04 04:01:25;;;;;;;10.23;3.03;;;12.00;55.40;;;;;;5129388;27;20039;-65
2022/05/04 04:03:51;;;;;;;11.23;3.10;;;12.00;55.40;;;;;;5122614;27;20091;-65
2022/05/04 04:06:17;;;;;;;10.20;2.78;;;12.00;55.50;;;;;;5132145;27;20423;-65
2022/05/04 04:08:42;;;;;;;7.70;2.90;;;12.00;55.50;;;;;;5115404;28;20675;-65
2022/05/04 04:11:08;;;;;;;9.85;2.80;;;12.00;55.60;;;;;;5114885;28;20035;-65
2022/05/04 04:13:34;;;;;;;6.82;2.65;;;12.00;55.60;;;;;;5127256;27;20481;-64
2022/05/04 04:16:00;;;;;;;7.72;2.60;;;12.00;55.50;;;;;;5116098;28;20032;-65
2022/05/04 04:18:26;;;;;;;9.18;3.05;;;12.00;55.50;;;;;;5115105;27;20028;-65
2022/05/04 04:23:38;;;;;;;8.63;2.72;;;12.00;55.50;;;;;;5115406;27;20046;-65
2022/05/04 04:26:04;;;;;;;8.25;2.80;;;12.00;55.60;;;;;;5134052;27;20447;-65
2022/05/04 04:28:35;;;;;;;7.88;2.60;;;12.00;55.70;;;;;;5115907;27;20452;-65
2022/05/04 04:31:01;;;;;;;8.45;3.03;;;11.90;55.60;;;;;;5120165;27;20135;-65
2022/05/04 04:33:28;;;;;;;7.07;2.55;;;11.90;55.70;;;;;;5130188;27;20038;-65
2022/05/04 04:35:58;;;;;;;8.48;2.90;;;11.90;55.70;;;;;;5136207;27;20031;-65
2022/05/04 04:38:24;;;;;;;9.18;2.60;;;11.90;55.70;;;;;;5119876;27;20042;-65
2022/05/04 04:40:50;;;;;;;12.23;3.00;;;11.90;55.70;;;;;;5120519;27;20351;-65
2022/05/04 04:43:16;;;;;;;9.98;2.60;;;11.90;55.70;;;;;;5127228;27;20084;-65
2022/05/04 04:45:46;;;;;;;7.78;3.20;;;11.90;55.70;;;;;;5135112;27;20035;-65
2022/05/04 04:48:13;;;;;;;10.77;3.80;;;11.90;55.70;;;;;;5121263;27;20035;-66
2022/05/04 04:50:39;;;;;;;8.32;2.78;;;11.90;55.80;;;;;;5121293;27;20493;-64
2022/05/04 04:53:05;;;;;;;9.75;2.90;;;11.90;55.80;;;;;;5119535;27;20028;-64
2022/05/04 04:55:30;;;;;;;6.95;2.78;;;11.90;55.70;;;;;;5120839;27;20329;-64
2022/05/04 04:57:56;;;;;;;7.22;2.47;;;11.90;55.80;;;;;;5114881;27;20360;-64
2022/05/04 05:00:22;;;;;;;9.07;3.17;;;11.90;55.90;;;;;;5123263;27;20464;-65
2022/05/04 05:02:48;;;;;;;10.63;3.53;;;11.90;55.80;;;;;;5127113;27;20402;-64
2022/05/04 05:05:14;;;;;;;9.10;3.45;;;11.90;55.90;;;;;;5131012;27;20039;-64
2022/05/04 05:07:39;;;;;;;11.65;3.38;;;11.90;55.90;;;;;;5116759;27;20031;-65
2022/05/04 05:10:05;;;;;;;7.72;2.80;;;11.90;55.80;;;;;;5115850;27;20039;-64
2022/05/04 05:12:32;;;;;;;12.10;3.05;;;12.00;55.80;;;;;;5134187;27;20035;-64
2022/05/04 05:17:42;;;;;;;6.57;3.00;;;12.00;55.80;;;;;;5115924;27;20070;-64
2022/05/04 05:20:09;;;;;;;9.57;3.03;;;12.00;55.70;;;;;;5121184;27;20073;-65
2022/05/04 05:22:35;;;;;;;8.10;3.00;;;12.00;55.70;;;;;;5127800;27;20094;-65
2022/05/04 05:25:00;;;;;;;9.60;3.10;;;12.10;55.70;;;;;;5113721;28;20031;-65
2022/05/04 05:27:29;;;;;;;7.75;2.40;;;12.10;55.60;;;;;;5114387;27;20024;-64
2022/05/04 05:29:55;;;;;;;7.80;2.92;;;12.20;55.60;;;;;;5113375;28;20459;-64
2022/05/04 05:32:20;;;;;;;9.00;3.05;;;12.20;55.50;;;;;;5114943;28;20036;-65
2022/05/04 05:34:46;;;;;;;11.18;3.10;;;12.30;55.30;;;;;;5116535;28;20125;-65
2022/05/04 05:37:11;;;;;;;6.90;3.13;;;12.40;55.10;;;;;;5114854;28;20027;-64
2022/05/04 05:39:37;;;;;;;7.97;3.05;;;12.50;55.00;;;;;;5115520;28;20483;-64
2022/05/04 05:42:02;;;;;;;7.60;3.25;;;12.60;54.80;;;;;;5115995;28;20043;-64
2022/05/04 05:44:28;;;;;;;8.10;3.10;;;12.60;54.60;;;;;;5124499;27;20103;-64
2022/05/04 05:46:53;;;;;;;7.20;2.67;;;12.70;54.50;;;;;;5124297;27;20042;-64
2022/05/04 05:49:19;;;;;;;8.68;3.28;;;12.90;54.40;;;;;;5131509;27;20054;-64
2022/05/04 05:51:45;;;;;;;8.80;2.95;;;13.00;54.20;;;;;;5123035;27;20130;-64
2022/05/04 05:54:10;;;;;;;10.85;3.30;;;13.10;54.00;;;;;;5135126;27;20039;-64
2022/05/04 05:56:36;;;;;;;8.80;3.22;;;13.30;53.80;;;;;;5134920;27;20107;-64
2022/05/04 05:59:01;;;;;;;7.68;2.85;;;13.50;53.50;;;;;;5135714;27;20027;-63
2022/05/04 06:01:27;;;;;;;10.15;3.85;;;13.70;53.10;;;;;;5138782;27;20027;-63
2022/05/04 06:03:53;;;;;;;11.07;3.20;;;13.80;52.80;;;;;;5127961;27;20019;-64
2022/05/04 06:06:19;;;;;;;9.82;2.90;;;14.00;52.40;;;;;;5137745;27;20115;-64
2022/05/04 06:08:44;;;;;;;10.70;3.22;;;14.20;52.60;;;;;;5125042;27;20028;-64
2022/05/04 06:11:10;;;;;;;8.40;2.63;;;14.30;51.70;;;;;;5137998;27;20031;-63
2022/05/04 06:13:36;;;;;;;7.50;2.60;;;14.50;51.30;;;;;;5128926;27;20055;-64
2022/05/04 06:16:01;;;;;;;9.27;2.30;;;14.60;50.90;;;;;;5133767;27;20430;-64
2022/05/04 06:18:27;;;;;;;10.95;2.72;;;14.70;50.70;;;;;;5128078;27;20031;-64
2022/05/04 06:20:52;;;;;;;12.02;3.40;;;14.80;50.40;;;;;;5137299;27;20451;-64
2022/05/04 06:23:18;;;;;;;10.43;2.78;;;14.90;50.40;;;;;;5119518;27;20115;-64
2022/05/04 06:25:45;;;;;;;9.80;2.63;;;15.00;50.50;;;;;;5122336;27;20031;-65
2022/05/04 06:28:11;;;;;;;10.00;2.90;;;15.10;50.30;;;;;;5127154;27;20035;-64
2022/05/04 06:36:06;;;;;;;8.10;2.42;;;15.40;49.30;;;;;;5125119;27;20045;-64
2022/05/04 06:38:32;;;;;;;6.13;2.20;;;15.50;49.00;;;;;;5124794;27;20027;-65
2022/05/04 06:40:57;;;;;;;7.20;2.45;;;15.70;48.90;;;;;;5125052;27;20030;-65
2022/05/04 06:43:23;;;;;;;8.20;2.92;;;15.80;48.70;;;;;;5130217;27;20355;-64
2022/05/04 06:45:49;;;;;;;7.22;2.35;;;15.90;48.40;;;;;;5118456;27;20028;-64
2022/05/04 06:48:14;;;;;;;10.23;2.30;;;16.00;48.00;;;;;;5117941;28;20100;-64
2022/05/04 06:50:40;;;;;;;8.77;2.17;;;16.10;47.80;;;;;;5119466;27;20467;-65
2022/05/04 06:53:06;;;;;;;7.50;2.55;;;16.20;47.40;;;;;;5137552;27;20179;-67
2022/05/04 06:55:31;;;;;;;7.13;2.47;;;16.40;47.00;;;;;;5119026;27;20024;-66
2022/05/04 06:57:57;;;;;;;7.38;2.22;;;16.40;46.70;;;;;;5119037;27;20024;-66
2022/05/04 07:00:23;;;;;;;8.50;2.00;;;16.50;46.40;;;;;;5125818;27;20024;-67
2022/05/04 07:02:48;;;;;;;8.40;2.33;;;16.60;46.20;;;;;;5136113;27;20452;-66
2022/05/04 07:05:14;;;;;;;6.68;2.25;;;16.60;46.00;;;;;;5124205;27;20375;-66
2022/05/04 07:07:39;;;;;;;6.82;2.03;;;16.80;45.90;;;;;;5117311;28;20031;-66
2022/05/04 07:10:06;;;;;;;8.88;2.38;;;16.90;45.60;;;;;;5117997;27;20364;-66
2022/05/04 07:12:31;;;;;;;8.10;2.20;;;17.10;45.30;;;;;;5120420;27;20031;-66
2022/05/04 07:14:57;;;;;;;6.78;2.13;;;17.30;45.20;;;;;;5133327;27;20127;-66
2022/05/04 07:17:23;;;;;;;6.10;2.42;;;17.40;45.00;;;;;;5115956;28;20092;-66
2022/05/04 07:19:49;;;;;;;8.02;2.60;;;17.50;44.80;;;;;;5120724;27;20023;-66
2022/05/04 07:22:15;;;;;;;4.85;1.90;;;17.60;44.50;;;;;;5129001;27;20028;-66
2022/05/04 07:24:42;;;;;;;7.05;2.42;;;17.80;44.30;;;;;;5121638;27;20027;-66
2022/05/04 07:27:07;;;;;;;7.22;2.10;;;17.90;44.00;;;;;;5129142;27;20033;-65
2022/05/04 07:29:34;;;;;;;6.90;2.10;;;17.90;43.60;;;;;;5134737;27;20035;-64
2022/05/04 07:32:00;;;;;;;7.80;2.20;;;18.00;43.50;;;;;;5121778;27;20051;-64
2022/05/04 07:34:25;;;;;;;8.55;2.25;;;18.10;43.30;;;;;;5119904;27;20042;-65
2022/05/04 07:36:51;;;;;;;5.93;2.13;;;18.10;43.00;;;;;;5133164;27;20031;-65
2022/05/04 07:44:45;;;;;;;8.73;2.22;;;18.30;42.70;;;;;;5115695;27;20113;-65
2022/05/04 07:47:11;;;;;;;9.23;2.38;;;18.50;42.60;;;;;;5117529;27;20023;-64
2022/05/04 07:49:37;;;;;;;6.63;2.35;;;18.50;42.40;;;;;;5116281;28;20050;-64
2022/05/04 07:52:03;;;;;;;7.82;2.45;;;18.60;42.10;;;;;;5118436;27;20452;-64
2022/05/04 07:54:29;;;;;;;6.50;2.55;;;18.70;42.10;;;;;;5116940;28;20111;-64
2022/05/04 07:56:55;;;;;;;6.10;2.40;;;18.70;41.90;;;;;;5118481;27;20086;-66
2022/05/04 07:59:20;;;;;;;6.18;2.10;;;18.90;41.70;;;;;;5116843;28;20122;-64
2022/05/04 08:04:31;;;;;;;7.47;2.28;;;19.00;41.50;;;;;;5115251;28;20084;-65
2022/05/04 08:06:56;;;;;;;8.77;2.72;;;19.00;41.40;;;;;;5101083;28;20027;-64
2022/05/04 08:09:22;;;;;;;8.23;2.40;;;19.00;41.30;;;;;;5116214;28;20161;-65
2022/05/04 08:11:47;;;;;;;5.72;2.35;;;19.10;41.10;;;;;;5117358;27;20028;-64
2022/05/04 08:14:13;;;;;;;8.90;2.90;;;19.20;41.10;;;;;;5116630;28;20031;-64
2022/05/04 08:16:39;;;;;;;7.18;2.53;;;19.30;41.10;;;;;;5119000;27;20032;-65
2022/05/04 08:19:06;;;;;;;9.93;2.78;;;19.40;41.10;;;;;;5114545;28;20034;-64
2022/05/04 08:21:32;;;;;;;11.52;3.20;;;19.50;40.80;;;;;;5122646;27;20371;-64
2022/05/04 08:23:59;;;;;;;7.07;2.42;;;19.50;40.50;;;;;;5115980;28;20111;-64
2022/05/04 08:26:25;;;;;;;8.73;2.90;;;19.50;40.50;;;;;;5115332;27;20333;-65
2022/05/04 08:28:51;;;;;;;9.52;2.80;;;19.50;40.50;;;;;;5115816;27;20034;-65
2022/05/04 08:31:18;;;;;;;8.00;2.42;;;19.70;40.50;;;;;;5123488;27;20043;-64
2022/05/04 08:33:44;;;;;;;7.97;2.63;;;19.70;40.30;;;;;;5125502;27;20465;-64
2022/05/04 08:36:09;;;;;;;6.65;2.50;;;19.90;40.10;;;;;;5134142;27;20107;-67
2022/05/04 08:38:35;;;;;;;7.93;2.65;;;19.90;40.50;;;;;;5114819;27;20038;-67
2022/05/04 08:41:02;;;;;;;6.18;2.38;;;20.10;39.80;;;;;;5116935;27;20020;-68
2022/05/04 08:43:31;;;;;;;7.50;2.88;;;20.10;39.50;;;;;;5121754;27;20092;-67
2022/05/04 08:46:00;;;;;;;7.40;2.53;;;20.00;39.50;;;;;;5117282;27;20024;-67
2022/05/04 08:48:26;;;;;;;7.20;2.50;;;19.90;39.50;;;;;;5114993;27;20324;-67
2022/05/04 08:50:53;;;;;;;8.38;2.90;;;19.90;39.50;;;;;;5121293;27;20099;-67
2022/05/04 08:53:19;;;;;;;6.25;2.17;;;19.90;39.40;;;;;;5115568;28;20027;-67
2022/05/04 08:55:46;;;;;;;5.93;2.30;;;20.00;39.40;;;;;;5115724;27;20361;-67
2022/05/04 08:58:12;;;;;;;9.25;2.55;;;20.00;39.40;;;;;;5133987;27;20026;-67
2022/05/04 09:00:38;;;;;;;5.65;2.15;;;20.10;39.30;;;;;;5129703;27;20527;-67
2022/05/04 09:03:06;;;;;;;6.35;2.45;;;20.20;39.20;;;;;;5114276;28;20076;-67
2022/05/04 09:05:39;;;;;;;5.43;2.10;;;20.10;38.90;;;;;;5097311;28;20028;-67
2022/05/04 09:08:05;;;;;;;6.15;2.38;;;20.10;39.00;;;;;;5100572;28;20053;-66
2022/05/04 09:10:35;;;;;;;6.85;2.28;;;20.30;38.90;;;;;;5112928;28;20131;-65
2022/05/04 09:13:03;;;;;;;10.20;2.05;;;20.50;38.70;;;;;;5114593;28;20043;-66
2022/05/04 09:15:31;;;;;;;4.60;1.90;;;20.60;38.40;;;;;;5097176;28;20329;-65
2022/05/04 09:18:01;;;;;;;6.18;2.35;;;20.70;38.30;;;;;;5115980;28;20023;-65
2022/05/04 09:20:48;;;;;;;7.20;2.63;;;20.80;38.10;;;;;;5126076;27;20034;-65
2022/05/04 09:23:28;;;;;;;8.48;2.35;;;20.90;38.10;;;;;;5116032;27;20035;-66
2022/05/04 09:26:07;;;;;;;6.57;2.33;;;20.80;38.30;;;;;;5130222;27;20069;-65
2022/05/04 09:28:34;;;;;;;7.18;2.17;;;20.80;38.30;;;;;;5133423;27;20031;-65
2022/05/04 09:31:05;;;;;;;6.53;2.00;;;20.90;38.40;;;;;;5133573;28;20054;-65
2022/05/04 09:33:34;;;;;;;6.57;2.10;;;20.90;38.10;;;;;;5132813;27;20023;-65
2022/05/04 09:36:03;;;;;;;6.80;2.53;;;20.80;38.10;;;;;;5125408;28;20493;-65
2022/05/04 09:46:53;;;;;;;6.50;2.00;;;20.80;37.30;;;;;;5115043;28;20073;-65
2022/05/04 09:49:21;;;;;;;6.50;2.30;;;20.70;37.50;;;;;;5119333;28;20024;-64
2022/05/04 09:51:56;;;;;;;6.00;2.45;;;20.80;37.70;;;;;;5114973;28;20016;-66
2022/05/04 09:54:24;;;;;;;7.25;2.40;;;20.90;37.40;;;;;;5105164;28;20352;-65
2022/05/04 09:56:57;;;;;;;9.27;2.67;;;21.00;37.30;;;;;;5132108;27;20035;-64
2022/05/04 09:59:25;;;;;;;7.28;2.38;;;21.00;37.00;;;;;;5116849;28;20110;-66
2022/05/04 10:01:52;;;;;;;5.63;2.22;;;21.00;37.10;;;;;;5114910;28;20062;-65
2022/05/04 10:04:23;;;;;;;6.80;1.92;;;21.10;37.20;;;;;;5103610;28;20032;-65
2022/05/04 10:06:52;;;;;;;7.35;2.47;;;21.20;37.10;;;;;;5112925;28;20362;-64
2022/05/04 10:09:19;;;;;;;7.55;2.40;;;21.30;37.00;;;;;;5130467;28;20020;-66
2022/05/04 10:11:46;;;;;;;6.30;2.13;;;21.30;36.80;;;;;;5132515;28;20020;-67
2022/05/04 10:14:15;;;;;;;8.48;2.47;;;21.40;37.00;;;;;;5122969;27;20079;-65
2022/05/04 10:17:11;;;;;;;5.95;2.28;;;21.50;36.90;;;;;;5120341;27;20111;-65
2022/05/04 10:19:48;;;;;;;5.57;2.22;;;21.70;36.90;;;;;;5128332;27;20397;-66
2022/05/04 10:22:19;;;;;;;8.00;2.38;;;21.80;36.70;;;;;;5125929;27;20333;-66
2022/05/04 10:24:45;;;;;;;5.18;2.30;;;21.90;36.70;;;;;;5119502;28;20024;-65
2022/05/04 10:27:21;;;;;;;6.80;2.70;;;21.90;36.70;;;;;;5123095;27;20026;-65
2022/05/04 10:32:44;;;;;;;8.45;2.33;;;21.90;36.50;;;;;;5126018;27;20043;-68
2022/05/04 10:35:26;;;;;;;6.50;2.65;;;21.90;36.50;;;;;;5122284;27;20993;-65
2022/05/04 10:37:54;;;;;;;5.68;2.20;;;21.90;37.00;;;;;;5127020;27;20147;-65
2022/05/04 10:40:43;;;;;;;5.80;2.25;;;22.00;36.30;;;;;;5116548;27;20019;-64
2022/05/04 10:43:10;;;;;;;5.95;1.90;;;22.10;36.10;;;;;;5124408;27;20432;-64
2022/05/04 10:45:37;;;;;;;6.60;2.53;;;22.10;36.20;;;;;;5119511;27;20050;-65
2022/05/04 10:48:12;;;;;;;5.82;2.22;;;22.10;36.00;;;;;;5097843;27;20039;-65
2022/05/04 10:50:55;;;;;;;5.28;2.30;;;22.20;36.00;;;;;;5117121;27;20096;-65
2022/05/04 10:53:36;;;;;;;9.05;2.90;;;22.20;35.80;;;;;;5140577;27;20404;-65
2022/05/04 10:56:12;;;;;;;8.30;2.67;;;22.10;36.30;;;;;;5158730;27;20054;-65
2022/05/04 10:58:54;;;;;;;7.40;2.65;;;22.10;35.80;;;;;;5119250;27;20026;-65
2022/05/04 11:01:34;;;;;;;6.75;2.33;;;22.00;35.60;;;;;;5122603;27;20139;-65
2022/05/04 11:04:09;;;;;;;6.67;2.60;;;22.10;35.50;;;;;;5133708;27;20027;-65
2022/05/04 11:06:57;;;;;;;5.97;2.33;;;22.10;35.40;;;;;;5136017;27;20440;-65
2022/05/04 11:09:25;;;;;;;6.32;2.50;;;22.10;36.10;;;;;;5116773;28;20034;-64
2022/05/04 11:11:53;;;;;;;5.85;2.15;;;22.20;35.60;;;;;;5133508;27;20522;-65
2022/05/04 11:14:22;;;;;;;8.98;2.60;;;22.30;35.40;;;;;;5136981;27;20031;-64
2022/05/04 11:16:50;;;;;;;8.40;2.70;;;22.30;35.10;;;;;;5134339;27;20463;-66
2022/05/04 11:19:16;;;;;;;6.95;2.78;;;22.20;34.90;;;;;;5119698;27;20363;-66
2022/05/04 11:21:42;;;;;;;5.88;2.30;;;22.10;34.90;;;;;;5116049;27;20032;-65
2022/05/04 11:24:11;;;;;;;5.97;2.55;;;22.20;34.80;;;;;;5126136;27;20164;-65
2022/05/04 11:26:48;;;;;;;5.57;2.35;;;22.20;34.70;;;;;;5117963;27;20051;-65
2022/05/04 11:29:23;;;;;;;6.65;2.60;;;22.20;34.30;;;;;;5124603;27;20165;-65
2022/05/04 11:31:58;;;;;;;6.53;2.45;;;22.20;34.40;;;;;;5129114;27;20062;-66
2022/05/04 11:34:25;;;;;;;7.45;2.88;;;22.20;34.70;;;;;;5127461;27;20043;-65
2022/05/04 11:36:53;;;;;;;9.60;2.92;;;22.10;34.70;;;;;;5120579;27;20166;-64
2022/05/04 11:39:26;;;;;;;7.72;2.50;;;22.20;34.80;;;;;;5108848;27;20026;-64
2022/05/04 11:41:55;;;;;;;6.47;2.53;;;22.20;34.90;;;;;;5137675;27;20029;-64
2022/05/04 11:44:23;;;;;;;6.97;2.45;;;22.20;35.00;;;;;;5122474;27;20034;-64
2022/05/04 11:46:56;;;;;;;7.90;2.97;;;22.20;35.00;;;;;;5116949;28;20059;-64
2022/05/04 11:49:24;;;;;;;5.82;2.40;;;22.10;34.70;;;;;;5118241;27;20116;-64
2022/05/04 11:51:51;;;;;;;6.32;2.50;;;22.00;34.80;;;;;;5133545;27;20042;-64
2022/05/04 11:54:18;;;;;;;7.93;2.85;;;21.90;35.10;;;;;;5133391;27;20027;-64
2022/05/04 11:56:44;;;;;;;8.43;3.00;;;22.00;35.00;;;;;;5118911;27;20045;-64
2022/05/04 11:59:10;;;;;;;7.82;3.20;;;22.00;34.90;;;;;;5123795;27;20106;-64
2022/05/04 12:01:37;;;;;;;7.25;3.35;;;21.90;35.00;;;;;;5136011;27;20510;-64
2022/05/04 12:04:05;;;;;;;7.13;3.30;;;21.80;35.30;;;;;;5129308;27;20111;-64
2022/05/04 12:06:31;;;;;;;7.97;3.00;;;21.70;35.50;;;;;;5116882;27;20059;-64
2022/05/04 12:08:59;;;;;;;7.50;2.95;;;21.60;35.70;;;;;;5116167;27;20031;-64
2022/05/04 12:11:25;;;;;;;8.27;3.10;;;21.60;36.00;;;;;;5116609;27;20028;-65
2022/05/04 12:13:52;;;;;;;6.15;2.63;;;21.60;36.10;;;;;;5115282;28;20024;-64
2022/05/04 12:16:19;;;;;;;7.18;2.90;;;21.60;36.10;;;;;;5130009;27;20054;-65
2022/05/04 12:18:47;;;;;;;9.23;3.00;;;21.70;36.00;;;;;;5113318;28;20020;-64
2022/05/04 12:21:20;;;;;;;7.47;2.95;;;21.70;36.00;;;;;;5131443;27;20058;-65
2022/05/04 12:23:48;;;;;;;8.10;3.35;;;21.70;36.00;;;;;;5139239;27;20022;-64
2022/05/04 12:26:15;;;;;;;8.52;3.63;;;21.70;36.00;;;;;;5133747;27;20360;-65
2022/05/04 12:28:42;;;;;;;9.38;3.63;;;21.50;36.10;;;;;;5129856;27;20027;-66
2022/05/04 12:33:55;;;;;;;9.40;3.85;;;21.40;36.30;;;;;;5136536;27;20170;-65
2022/05/04 12:36:23;;;;;;;7.20;3.65;;;21.30;36.00;;;;;;5136592;27;20058;-66
2022/05/04 12:38:50;;;;;;;8.48;3.95;;;21.20;36.10;;;;;;5137002;27;20084;-65
2022/05/04 12:41:24;;;;;;;7.75;3.00;;;21.10;36.10;;;;;;5135043;27;20130;-66
2022/05/04 12:43:50;;;;;;;9.57;3.83;;;21.10;36.30;;;;;;5126236;27;20117;-65
2022/05/04 12:46:19;;;;;;;9.30;3.83;;;21.10;36.30;;;;;;5136046;27;20062;-65
2022/05/04 12:48:46;;;;;;;9.98;3.40;;;21.00;36.10;;;;;;5134917;27;20420;-65
2022/05/04 12:51:17;;;;;;;11.45;3.60;;;20.80;36.30;;;;;;5128308;27;20425;-66
2022/05/04 12:53:49;;;;;;;8.20;3.20;;;20.70;36.30;;;;;;5134762;27;20060;-65
2022/05/04 12:59:02;;;;;;;6.65;3.20;;;20.70;36.40;;;;;;5116598;27;20093;-65
2022/05/04 13:01:30;;;;;;;7.43;3.22;;;20.60;36.50;;;;;;5114751;27;20363;-66
2022/05/04 13:03:59;;;;;;;6.95;3.22;;;20.60;36.60;;;;;;5122307;27;20110;-66
2022/05/04 13:06:25;;;;;;;8.68;3.22;;;20.50;36.90;;;;;;5131861;27;20118;-66
2022/05/04 13:08:51;;;;;;;8.98;3.30;;;20.60;37.00;;;;;;5124756;27;20397;-66
2022/05/04 13:11:18;;;;;;;7.72;3.55;;;20.60;36.90;;;;;;5135658;27;20062;-65
2022/05/04 13:13:43;;;;;;;7.95;3.30;;;20.70;36.60;;;;;;5115417;27;20063;-65
2022/05/04 13:16:10;;;;;;;8.57;3.47;;;20.60;36.60;;;;;;5129401;27;20090;-65
2022/05/04 13:18:36;;;;;;;9.80;3.45;;;20.60;36.60;;;;;;5122569;27;20026;-65
2022/05/04 13:21:03;;;;;;;8.90;3.80;;;20.60;36.70;;;;;;5114127;28;20441;-65
2022/05/04 13:23:29;;;;;;;5.72;2.45;;;20.60;36.70;;;;;;5114802;28;20034;-65
2022/05/04 13:25:54;;;;;;;8.25;3.25;;;20.60;37.40;;;;;;5125073;27;20031;-65
2022/05/04 13:28:20;;;;;;;8.18;3.28;;;20.60;36.80;;;;;;5121336;27;20035;-65